sensor_id;sensor_type;location;lat;lon;timestamp;temperature;humidity
24262;DHT22;12385;51.412;5.540;2022-12-07T00:01:32;5.10;99.90
24262;DHT22;12385;51.412;5.540;2022-12-07T00:03:59;5.00;99.90
24262;DHT22;12385;51.412;5.540;2022-12-07T00:06:40;5.00;99.90
24262;DHT22;12385;51.412;5.540;2022-12-07T00:09:08;5.00;99.90
24262;DHT22;12385;51.412;5.540;2022-12-07T00:11:35;4.90;99.90
24262;DHT22;12385;51.412;5.540;2022-12-07T00:14:03;5.00;99.90
24262;DHT22;12385;51.412;5.540;2022-12-07T00:16:32;5.00;99.90
24262;DHT22;12385;51.412;5.540;2022-12-07T00:18:58;4.90;99.90
24262;DHT22;12385;51.412;5.540;2022-12-07T00:21:33;4.90;99.90
24262;DHT22;12385;51.412;5.540;2022-12-07T00:23:59;5.00;99.90
24262;DHT22;12385;51.412;5.540;2022-12-07T00:26:28;4.90;99.90
24262;DHT22;12385;51.412;5.540;2022-12-07T00:28:56;4.90;99.90
24262;DHT22;12385;51.412;5.540;2022-12-07T00:31:28;4.90;99.90
24262;DHT22;12385;51.412;5.540;2022-12-07T00:33:54;4.80;99.90
24262;DHT22;12385;51.412;5.540;2022-12-07T00:36:22;4.80;99.90
24262;DHT22;12385;51.412;5.540;2022-12-07T00:38:48;4.70;99.90
24262;DHT22;12385;51.412;5.540;2022-12-07T00:41:16;4.70;99.90
24262;DHT22;12385;51.412;5.540;2022-12-07T00:43:43;4.60;99.90
24262;DHT22;12385;51.412;5.540;2022-12-07T00:46:09;4.60;99.90
24262;DHT22;12385;51.412;5.540;2022-12-07T00:48:35;4.50;99.90
24262;DHT22;12385;51.412;5.540;2022-12-07T00:51:01;4.50;99.90
24262;DHT22;12385;51.412;5.540;2022-12-07T00:53:27;4.40;99.90
24262;DHT22;12385;51.412;5.540;2022-12-07T00:55:53;4.40;99.90
24262;DHT22;12385;51.412;5.540;2022-12-07T00:58:20;4.40;99.90
24262;DHT22;12385;51.412;5.540;2022-12-07T01:00:46;4.30;99.90
24262;DHT22;12385;51.412;5.540;2022-12-07T01:03:13;4.30;99.90
24262;DHT22;12385;51.412;5.540;2022-12-07T01:05:39;4.30;99.90
24262;DHT22;12385;51.412;5.540;2022-12-07T01:08:06;4.30;99.90
24262;DHT22;12385;51.412;5.540;2022-12-07T01:10:32;4.20;99.90
24262;DHT22;12385;51.412;5.540;2022-12-07T01:12:58;4.20;99.90
24262;DHT22;12385;51.412;5.540;2022-12-07T01:15:24;4.20;99.90
24262;DHT22;12385;51.412;5.540;2022-12-07T01:17:50;4.20;99.90
24262;DHT22;12385;51.412;5.540;2022-12-07T01:20:15;4.20;99.90
24262;DHT22;12385;51.412;5.540;2022-12-07T01:22:42;4.20;99.90
24262;DHT22;12385;51.412;5.540;2022-12-07T01:25:09;4.20;99.90
24262;DHT22;12385;51.412;5.540;2022-12-07T01:27:35;4.10;99.90
24262;DHT22;12385;51.412;5.540;2022-12-07T01:30:03;4.10;99.90
24262;DHT22;12385;51.412;5.540;2022-12-07T01:32:29;4.10;99.90
24262;DHT22;12385;51.412;5.540;2022-12-07T01:34:55;4.00;99.90
24262;DHT22;12385;51.412;5.540;2022-12-07T01:37:21;4.00;99.90
24262;DHT22;12385;51.412;5.540;2022-12-07T01:39:49;4.00;99.90
24262;DHT22;12385;51.412;5.540;2022-12-07T01:42:14;4.00;99.90
24262;DHT22;12385;51.412;5.540;2022-12-07T01:47:50;4.10;99.90
24262;DHT22;12385;51.412;5.540;2022-12-07T01:50:17;4.10;99.90
24262;DHT22;12385;51.412;5.540;2022-12-07T01:52:45;4.10;99.90
24262;DHT22;12385;51.412;5.540;2022-12-07T01:55:13;4.10;99.90
24262;DHT22;12385;51.412;5.540;2022-12-07T01:57:42;4.20;99.90
24262;DHT22;12385;51.412;5.540;2022-12-07T02:00:09;4.20;99.90
24262;DHT22;12385;51.412;5.540;2022-12-07T02:02:49;4.20;99.90
24262;DHT22;12385;51.412;5.540;2022-12-07T02:05:17;4.30;99.90
24262;DHT22;12385;51.412;5.540;2022-12-07T02:07:43;4.30;99.90
24262;DHT22;12385;51.412;5.540;2022-12-07T02:10:19;4.30;99.90
24262;DHT22;12385;51.412;5.540;2022-12-07T02:12:52;4.30;99.90
24262;DHT22;12385;51.412;5.540;2022-12-07T02:15:20;4.40;99.90
24262;DHT22;12385;51.412;5.540;2022-12-07T02:18:16;4.40;99.90
24262;DHT22;12385;51.412;5.540;2022-12-07T02:21:12;4.50;99.90
24262;DHT22;12385;51.412;5.540;2022-12-07T02:23:41;4.50;99.90
24262;DHT22;12385;51.412;5.540;2022-12-07T02:32:07;4.50;99.90
24262;DHT22;12385;51.412;5.540;2022-12-07T02:37:58;4.50;99.90
24262;DHT22;12385;51.412;5.540;2022-12-07T02:43:26;4.50;99.90
24262;DHT22;12385;51.412;5.540;2022-12-07T02:45:56;4.40;99.90
24262;DHT22;12385;51.412;5.540;2022-12-07T02:48:23;4.40;99.90
24262;DHT22;12385;51.412;5.540;2022-12-07T02:50:51;4.40;99.90
24262;DHT22;12385;51.412;5.540;2022-12-07T02:53:35;4.40;99.90
24262;DHT22;12385;51.412;5.540;2022-12-07T02:56:40;4.40;99.90
24262;DHT22;12385;51.412;5.540;2022-12-07T03:10:13;4.00;99.90
24262;DHT22;12385;51.412;5.540;2022-12-07T03:13:17;4.00;99.90
24262;DHT22;12385;51.412;5.540;2022-12-07T03:18:34;3.90;99.90
24262;DHT22;12385;51.412;5.540;2022-12-07T03:21:06;3.90;99.90
24262;DHT22;12385;51.412;5.540;2022-12-07T03:23:35;3.90;99.90
24262;DHT22;12385;51.412;5.540;2022-12-07T03:26:03;4.00;99.90
24262;DHT22;12385;51.412;5.540;2022-12-07T03:28:33;4.00;99.90
24262;DHT22;12385;51.412;5.540;2022-12-07T03:31:31;4.00;99.90
24262;DHT22;12385;51.412;5.540;2022-12-07T03:39:45;4.00;99.90
24262;DHT22;12385;51.412;5.540;2022-12-07T03:42:12;4.00;99.90
24262;DHT22;12385;51.412;5.540;2022-12-07T03:44:41;4.00;99.90
24262;DHT22;12385;51.412;5.540;2022-12-07T03:49:59;4.00;99.90
24262;DHT22;12385;51.412;5.540;2022-12-07T03:52:39;4.10;99.90
24262;DHT22;12385;51.412;5.540;2022-12-07T03:55:14;4.10;99.90
24262;DHT22;12385;51.412;5.540;2022-12-07T03:57:44;4.10;99.90
24262;DHT22;12385;51.412;5.540;2022-12-07T04:00:13;4.10;99.90
24262;DHT22;12385;51.412;5.540;2022-12-07T04:02:40;4.20;99.90
24262;DHT22;12385;51.412;5.540;2022-12-07T04:05:06;4.20;99.90
24262;DHT22;12385;51.412;5.540;2022-12-07T04:07:32;4.30;99.90
24262;DHT22;12385;51.412;5.540;2022-12-07T04:09:58;4.30;99.90
24262;DHT22;12385;51.412;5.540;2022-12-07T04:12:23;4.30;99.90
24262;DHT22;12385;51.412;5.540;2022-12-07T04:14:49;4.30;99.90
24262;DHT22;12385;51.412;5.540;2022-12-07T04:17:15;4.30;99.90
24262;DHT22;12385;51.412;5.540;2022-12-07T04:19:41;4.30;99.90
24262;DHT22;12385;51.412;5.540;2022-12-07T04:22:07;4.30;99.90
24262;DHT22;12385;51.412;5.540;2022-12-07T04:24:34;4.30;99.90
24262;DHT22;12385;51.412;5.540;2022-12-07T04:27:00;4.40;99.90
24262;DHT22;12385;51.412;5.540;2022-12-07T04:29:25;4.40;99.90
24262;DHT22;12385;51.412;5.540;2022-12-07T04:31:52;4.40;99.90
24262;DHT22;12385;51.412;5.540;2022-12-07T04:34:18;4.40;99.90
24262;DHT22;12385;51.412;5.540;2022-12-07T04:36:45;4.50;99.90
24262;DHT22;12385;51.412;5.540;2022-12-07T04:39:19;4.50;99.90
24262;DHT22;12385;51.412;5.540;2022-12-07T04:41:45;4.50;99.90
24262;DHT22;12385;51.412;5.540;2022-12-07T04:44:13;4.50;99.90
24262;DHT22;12385;51.412;5.540;2022-12-07T04:46:40;4.60;99.90
24262;DHT22;12385;51.412;5.540;2022-12-07T04:49:06;4.60;99.90
24262;DHT22;12385;51.412;5.540;2022-12-07T04:51:32;4.50;99.90
24262;DHT22;12385;51.412;5.540;2022-12-07T04:53:58;4.60;99.90
24262;DHT22;12385;51.412;5.540;2022-12-07T04:56:24;4.60;99.90
24262;DHT22;12385;51.412;5.540;2022-12-07T04:58:50;4.60;99.90
24262;DHT22;12385;51.412;5.540;2022-12-07T05:01:17;4.60;99.90
24262;DHT22;12385;51.412;5.540;2022-12-07T05:03:43;4.70;99.90
24262;DHT22;12385;51.412;5.540;2022-12-07T05:06:10;4.60;99.90
24262;DHT22;12385;51.412;5.540;2022-12-07T05:08:36;4.70;99.90
24262;DHT22;12385;51.412;5.540;2022-12-07T05:11:03;4.70;99.90
24262;DHT22;12385;51.412;5.540;2022-12-07T05:13:29;4.70;99.90
24262;DHT22;12385;51.412;5.540;2022-12-07T05:15:54;4.70;99.90
24262;DHT22;12385;51.412;5.540;2022-12-07T05:18:20;4.70;99.90
24262;DHT22;12385;51.412;5.540;2022-12-07T05:20:46;4.70;99.90
24262;DHT22;12385;51.412;5.540;2022-12-07T05:23:12;4.70;99.90
24262;DHT22;12385;51.412;5.540;2022-12-07T05:25:38;4.70;99.90
24262;DHT22;12385;51.412;5.540;2022-12-07T05:28:04;4.70;99.90
24262;DHT22;12385;51.412;5.540;2022-12-07T05:30:30;4.70;99.90
24262;DHT22;12385;51.412;5.540;2022-12-07T05:32:56;4.70;99.90
24262;DHT22;12385;51.412;5.540;2022-12-07T05:35:22;4.70;99.90
24262;DHT22;12385;51.412;5.540;2022-12-07T05:37:47;4.70;99.90
24262;DHT22;12385;51.412;5.540;2022-12-07T05:40:13;4.70;99.90
24262;DHT22;12385;51.412;5.540;2022-12-07T05:42:41;4.70;99.90
24262;DHT22;12385;51.412;5.540;2022-12-07T05:45:08;4.70;99.90
24262;DHT22;12385;51.412;5.540;2022-12-07T05:47:34;4.70;99.90
24262;DHT22;12385;51.412;5.540;2022-12-07T05:49:59;4.70;99.90
24262;DHT22;12385;51.412;5.540;2022-12-07T05:52:25;4.70;99.90
24262;DHT22;12385;51.412;5.540;2022-12-07T05:54:51;4.70;99.90
24262;DHT22;12385;51.412;5.540;2022-12-07T05:57:17;4.60;99.90
24262;DHT22;12385;51.412;5.540;2022-12-07T05:59:43;4.60;99.90
24262;DHT22;12385;51.412;5.540;2022-12-07T06:02:11;4.60;99.90
24262;DHT22;12385;51.412;5.540;2022-12-07T06:04:39;4.50;99.90
24262;DHT22;12385;51.412;5.540;2022-12-07T06:07:06;4.50;99.90
24262;DHT22;12385;51.412;5.540;2022-12-07T06:09:32;4.50;99.90
24262;DHT22;12385;51.412;5.540;2022-12-07T06:11:59;4.50;99.90
24262;DHT22;12385;51.412;5.540;2022-12-07T06:14:43;4.40;99.90
24262;DHT22;12385;51.412;5.540;2022-12-07T06:17:09;4.30;99.90
24262;DHT22;12385;51.412;5.540;2022-12-07T06:19:35;4.20;99.90
24262;DHT22;12385;51.412;5.540;2022-12-07T06:22:02;4.20;99.90
24262;DHT22;12385;51.412;5.540;2022-12-07T06:24:28;4.20;99.90
24262;DHT22;12385;51.412;5.540;2022-12-07T06:26:53;4.10;99.90
24262;DHT22;12385;51.412;5.540;2022-12-07T06:29:20;4.10;99.90
24262;DHT22;12385;51.412;5.540;2022-12-07T06:31:45;4.00;99.90
24262;DHT22;12385;51.412;5.540;2022-12-07T06:34:14;4.00;99.90
24262;DHT22;12385;51.412;5.540;2022-12-07T06:36:40;3.90;99.90
24262;DHT22;12385;51.412;5.540;2022-12-07T06:39:06;3.90;99.90
24262;DHT22;12385;51.412;5.540;2022-12-07T06:41:35;3.80;99.90
24262;DHT22;12385;51.412;5.540;2022-12-07T06:44:01;3.80;99.90
24262;DHT22;12385;51.412;5.540;2022-12-07T06:46:27;3.70;99.90
24262;DHT22;12385;51.412;5.540;2022-12-07T06:48:53;3.70;99.90
24262;DHT22;12385;51.412;5.540;2022-12-07T06:51:18;3.70;99.90
24262;DHT22;12385;51.412;5.540;2022-12-07T06:53:44;3.70;99.90
24262;DHT22;12385;51.412;5.540;2022-12-07T06:56:10;3.70;99.90
24262;DHT22;12385;51.412;5.540;2022-12-07T06:58:36;3.70;99.90
24262;DHT22;12385;51.412;5.540;2022-12-07T07:01:02;3.60;99.90
24262;DHT22;12385;51.412;5.540;2022-12-07T07:03:28;3.60;99.90
24262;DHT22;12385;51.412;5.540;2022-12-07T07:05:54;3.70;99.90
24262;DHT22;12385;51.412;5.540;2022-12-07T07:08:19;3.60;99.90
24262;DHT22;12385;51.412;5.540;2022-12-07T07:10:45;3.60;99.90
24262;DHT22;12385;51.412;5.540;2022-12-07T07:13:10;3.70;99.90
24262;DHT22;12385;51.412;5.540;2022-12-07T07:15:37;3.70;99.90
24262;DHT22;12385;51.412;5.540;2022-12-07T07:18:04;3.70;99.90
24262;DHT22;12385;51.412;5.540;2022-12-07T07:20:30;3.70;99.90
24262;DHT22;12385;51.412;5.540;2022-12-07T07:22:56;3.70;99.90
24262;DHT22;12385;51.412;5.540;2022-12-07T07:25:21;3.70;99.90
24262;DHT22;12385;51.412;5.540;2022-12-07T07:27:47;3.70;99.90
24262;DHT22;12385;51.412;5.540;2022-12-07T07:30:13;3.80;99.90
24262;DHT22;12385;51.412;5.540;2022-12-07T07:32:38;3.80;99.90
24262;DHT22;12385;51.412;5.540;2022-12-07T07:35:04;3.80;99.90
24262;DHT22;12385;51.412;5.540;2022-12-07T07:37:30;3.80;99.90
24262;DHT22;12385;51.412;5.540;2022-12-07T07:39:55;3.90;99.90
24262;DHT22;12385;51.412;5.540;2022-12-07T07:42:21;3.90;99.90
24262;DHT22;12385;51.412;5.540;2022-12-07T07:44:47;3.80;99.90
24262;DHT22;12385;51.412;5.540;2022-12-07T07:47:13;3.90;99.90
24262;DHT22;12385;51.412;5.540;2022-12-07T07:49:38;3.80;99.90
24262;DHT22;12385;51.412;5.540;2022-12-07T07:52:05;3.90;99.90
24262;DHT22;12385;51.412;5.540;2022-12-07T07:54:31;3.90;99.90
24262;DHT22;12385;51.412;5.540;2022-12-07T07:56:56;3.80;99.90
24262;DHT22;12385;51.412;5.540;2022-12-07T07:59:22;3.90;99.90
24262;DHT22;12385;51.412;5.540;2022-12-07T08:01:48;3.90;99.90
24262;DHT22;12385;51.412;5.540;2022-12-07T08:04:14;3.90;99.90
24262;DHT22;12385;51.412;5.540;2022-12-07T08:06:39;3.90;99.90
24262;DHT22;12385;51.412;5.540;2022-12-07T08:09:07;3.90;99.90
24262;DHT22;12385;51.412;5.540;2022-12-07T08:11:33;4.00;99.90
24262;DHT22;12385;51.412;5.540;2022-12-07T08:13:59;4.00;99.90
24262;DHT22;12385;51.412;5.540;2022-12-07T08:16:24;4.00;99.90
24262;DHT22;12385;51.412;5.540;2022-12-07T08:18:50;4.10;99.90
24262;DHT22;12385;51.412;5.540;2022-12-07T08:21:16;4.10;99.90
24262;DHT22;12385;51.412;5.540;2022-12-07T08:23:42;4.20;99.90
24262;DHT22;12385;51.412;5.540;2022-12-07T08:26:09;4.20;99.90
24262;DHT22;12385;51.412;5.540;2022-12-07T08:28:36;4.20;99.90
24262;DHT22;12385;51.412;5.540;2022-12-07T08:31:13;4.30;99.90
24262;DHT22;12385;51.412;5.540;2022-12-07T08:33:40;4.30;99.90
24262;DHT22;12385;51.412;5.540;2022-12-07T08:36:08;4.30;99.90
24262;DHT22;12385;51.412;5.540;2022-12-07T08:38:35;4.30;99.90
24262;DHT22;12385;51.412;5.540;2022-12-07T08:41:02;4.40;99.90
24262;DHT22;12385;51.412;5.540;2022-12-07T08:43:28;4.40;99.90
24262;DHT22;12385;51.412;5.540;2022-12-07T08:46:17;4.40;99.90
24262;DHT22;12385;51.412;5.540;2022-12-07T08:48:50;4.40;99.90
24262;DHT22;12385;51.412;5.540;2022-12-07T08:51:17;4.40;99.90
24262;DHT22;12385;51.412;5.540;2022-12-07T08:53:43;4.50;99.90
24262;DHT22;12385;51.412;5.540;2022-12-07T08:56:09;4.50;99.90
24262;DHT22;12385;51.412;5.540;2022-12-07T08:58:36;4.50;99.90
24262;DHT22;12385;51.412;5.540;2022-12-07T09:01:03;4.60;99.90
24262;DHT22;12385;51.412;5.540;2022-12-07T09:03:30;4.60;99.90
24262;DHT22;12385;51.412;5.540;2022-12-07T09:05:57;4.70;99.90
24262;DHT22;12385;51.412;5.540;2022-12-07T09:08:25;4.70;99.90
24262;DHT22;12385;51.412;5.540;2022-12-07T09:10:51;4.70;99.90
24262;DHT22;12385;51.412;5.540;2022-12-07T09:13:17;4.80;99.90
24262;DHT22;12385;51.412;5.540;2022-12-07T09:15:43;4.90;99.90
24262;DHT22;12385;51.412;5.540;2022-12-07T09:18:09;5.00;99.90
24262;DHT22;12385;51.412;5.540;2022-12-07T09:20:34;5.00;99.90
24262;DHT22;12385;51.412;5.540;2022-12-07T09:23:00;5.10;99.90
24262;DHT22;12385;51.412;5.540;2022-12-07T09:25:27;5.10;99.90
24262;DHT22;12385;51.412;5.540;2022-12-07T09:27:57;5.10;99.90
24262;DHT22;12385;51.412;5.540;2022-12-07T09:30:23;5.20;99.90
24262;DHT22;12385;51.412;5.540;2022-12-07T09:32:49;5.20;99.90
24262;DHT22;12385;51.412;5.540;2022-12-07T09:35:14;5.20;99.90
24262;DHT22;12385;51.412;5.540;2022-12-07T09:37:40;5.30;99.90
24262;DHT22;12385;51.412;5.540;2022-12-07T09:40:06;5.30;99.90
24262;DHT22;12385;51.412;5.540;2022-12-07T09:42:38;5.30;99.90
24262;DHT22;12385;51.412;5.540;2022-12-07T09:45:06;5.40;99.90
24262;DHT22;12385;51.412;5.540;2022-12-07T09:47:33;5.40;99.90
24262;DHT22;12385;51.412;5.540;2022-12-07T09:50:14;5.40;99.90
24262;DHT22;12385;51.412;5.540;2022-12-07T09:52:41;5.40;99.90
24262;DHT22;12385;51.412;5.540;2022-12-07T09:55:14;5.40;99.90
24262;DHT22;12385;51.412;5.540;2022-12-07T09:57:40;5.40;99.90
24262;DHT22;12385;51.412;5.540;2022-12-07T10:00:13;5.40;99.90
24262;DHT22;12385;51.412;5.540;2022-12-07T10:03:01;5.40;99.90
24262;DHT22;12385;51.412;5.540;2022-12-07T10:05:34;5.40;99.90
24262;DHT22;12385;51.412;5.540;2022-12-07T10:08:03;5.30;99.90
24262;DHT22;12385;51.412;5.540;2022-12-07T10:10:34;5.30;99.90
24262;DHT22;12385;51.412;5.540;2022-12-07T10:13:05;5.30;99.90
24262;DHT22;12385;51.412;5.540;2022-12-07T10:18:36;5.30;99.90
24262;DHT22;12385;51.412;5.540;2022-12-07T10:23:36;5.40;99.90
24262;DHT22;12385;51.412;5.540;2022-12-07T10:28:53;5.50;99.90
24262;DHT22;12385;51.412;5.540;2022-12-07T10:31:21;5.50;99.90
24262;DHT22;12385;51.412;5.540;2022-12-07T10:33:54;5.50;99.90
24262;DHT22;12385;51.412;5.540;2022-12-07T10:39:15;5.60;99.90
24262;DHT22;12385;51.412;5.540;2022-12-07T10:41:55;5.70;99.90
24262;DHT22;12385;51.412;5.540;2022-12-07T10:44:23;5.70;99.90
24262;DHT22;12385;51.412;5.540;2022-12-07T10:55:11;6.00;99.90
24262;DHT22;12385;51.412;5.540;2022-12-07T11:03:25;6.20;99.90
24262;DHT22;12385;51.412;5.540;2022-12-07T11:06:03;6.20;99.90
24262;DHT22;12385;51.412;5.540;2022-12-07T11:14:40;6.30;99.90
24262;DHT22;12385;51.412;5.540;2022-12-07T11:17:17;6.20;99.90
24262;DHT22;12385;51.412;5.540;2022-12-07T11:19:49;6.30;99.90
24262;DHT22;12385;51.412;5.540;2022-12-07T11:30:21;6.60;99.90
24262;DHT22;12385;51.412;5.540;2022-12-07T11:37:47;6.90;99.90
24262;DHT22;12385;51.412;5.540;2022-12-07T11:42:56;7.00;99.90
24262;DHT22;12385;51.412;5.540;2022-12-07T11:45:29;7.00;99.90
24262;DHT22;12385;51.412;5.540;2022-12-07T11:48:02;7.00;99.90
24262;DHT22;12385;51.412;5.540;2022-12-07T11:50:37;7.00;99.90
24262;DHT22;12385;51.412;5.540;2022-12-07T11:53:27;7.10;99.90
24262;DHT22;12385;51.412;5.540;2022-12-07T11:56:06;7.10;99.90
24262;DHT22;12385;51.412;5.540;2022-12-07T11:58:49;7.10;99.90
24262;DHT22;12385;51.412;5.540;2022-12-07T12:06:40;7.20;99.90
24262;DHT22;12385;51.412;5.540;2022-12-07T12:09:39;7.20;99.90
24262;DHT22;12385;51.412;5.540;2022-12-07T12:18:29;7.30;99.90
24262;DHT22;12385;51.412;5.540;2022-12-07T12:21:04;7.30;99.90
24262;DHT22;12385;51.412;5.540;2022-12-07T12:23:55;7.20;99.90
24262;DHT22;12385;51.412;5.540;2022-12-07T12:26:24;7.30;99.90
24262;DHT22;12385;51.412;5.540;2022-12-07T12:29:06;7.30;99.90
24262;DHT22;12385;51.412;5.540;2022-12-07T12:34:03;7.20;99.90
24262;DHT22;12385;51.412;5.540;2022-12-07T12:39:18;7.20;99.90
24262;DHT22;12385;51.412;5.540;2022-12-07T12:54:19;7.20;99.90
24262;DHT22;12385;51.412;5.540;2022-12-07T12:56:52;7.30;99.90
24262;DHT22;12385;51.412;5.540;2022-12-07T13:01:47;7.50;99.90
24262;DHT22;12385;51.412;5.540;2022-12-07T13:04:39;7.60;99.90
24262;DHT22;12385;51.412;5.540;2022-12-07T13:07:11;7.80;99.90
24262;DHT22;12385;51.412;5.540;2022-12-07T13:09:42;7.90;99.90
24262;DHT22;12385;51.412;5.540;2022-12-07T13:12:14;8.00;99.90
24262;DHT22;12385;51.412;5.540;2022-12-07T13:17:12;8.00;99.90
24262;DHT22;12385;51.412;5.540;2022-12-07T13:20:05;8.00;99.90
24262;DHT22;12385;51.412;5.540;2022-12-07T13:27:57;7.90;99.90
24262;DHT22;12385;51.412;5.540;2022-12-07T13:30:26;7.80;99.90
24262;DHT22;12385;51.412;5.540;2022-12-07T13:32:58;7.80;99.90
24262;DHT22;12385;51.412;5.540;2022-12-07T13:37:56;7.70;99.90
24262;DHT22;12385;51.412;5.540;2022-12-07T13:40:23;7.70;99.90
24262;DHT22;12385;51.412;5.540;2022-12-07T13:42:58;7.70;99.90
24262;DHT22;12385;51.412;5.540;2022-12-07T13:48:43;7.50;99.90
24262;DHT22;12385;51.412;5.540;2022-12-07T13:54:10;7.40;99.90
24262;DHT22;12385;51.412;5.540;2022-12-07T13:56:35;7.30;99.90
24262;DHT22;12385;51.412;5.540;2022-12-07T13:59:01;7.20;99.90
24262;DHT22;12385;51.412;5.540;2022-12-07T14:01:30;7.20;99.90
24262;DHT22;12385;51.412;5.540;2022-12-07T14:03:56;7.20;99.90
24262;DHT22;12385;51.412;5.540;2022-12-07T14:06:50;7.20;99.90
24262;DHT22;12385;51.412;5.540;2022-12-07T14:09:19;7.30;99.90
24262;DHT22;12385;51.412;5.540;2022-12-07T14:11:48;7.30;99.90
24262;DHT22;12385;51.412;5.540;2022-12-07T14:14:19;7.40;99.90
24262;DHT22;12385;51.412;5.540;2022-12-07T14:16:59;7.50;99.90
24262;DHT22;12385;51.412;5.540;2022-12-07T14:19:51;7.50;99.90
24262;DHT22;12385;51.412;5.540;2022-12-07T14:22:35;7.60;99.90
24262;DHT22;12385;51.412;5.540;2022-12-07T14:27:40;7.70;99.90
24262;DHT22;12385;51.412;5.540;2022-12-07T14:30:17;7.70;99.90
24262;DHT22;12385;51.412;5.540;2022-12-07T14:32:44;7.70;99.90
24262;DHT22;12385;51.412;5.540;2022-12-07T14:35:15;7.70;99.90
24262;DHT22;12385;51.412;5.540;2022-12-07T14:37:43;7.70;99.90
24262;DHT22;12385;51.412;5.540;2022-12-07T14:40:14;7.70;99.90
24262;DHT22;12385;51.412;5.540;2022-12-07T14:42:40;7.60;99.90
24262;DHT22;12385;51.412;5.540;2022-12-07T14:45:13;7.50;99.90
24262;DHT22;12385;51.412;5.540;2022-12-07T14:47:39;7.40;99.90
24262;DHT22;12385;51.412;5.540;2022-12-07T14:50:05;7.30;99.90
24262;DHT22;12385;51.412;5.540;2022-12-07T14:52:31;7.30;99.90
24262;DHT22;12385;51.412;5.540;2022-12-07T14:54:57;7.30;99.90
24262;DHT22;12385;51.412;5.540;2022-12-07T14:57:23;7.30;99.90
24262;DHT22;12385;51.412;5.540;2022-12-07T14:59:48;7.30;99.90
24262;DHT22;12385;51.412;5.540;2022-12-07T15:02:15;7.20;99.90
24262;DHT22;12385;51.412;5.540;2022-12-07T15:04:41;7.20;99.90
24262;DHT22;12385;51.412;5.540;2022-12-07T15:07:27;7.20;99.90
24262;DHT22;12385;51.412;5.540;2022-12-07T15:09:53;7.10;99.90
24262;DHT22;12385;51.412;5.540;2022-12-07T15:12:20;7.10;99.90
24262;DHT22;12385;51.412;5.540;2022-12-07T15:14:45;7.10;99.90
24262;DHT22;12385;51.412;5.540;2022-12-07T15:17:11;7.10;99.90
24262;DHT22;12385;51.412;5.540;2022-12-07T15:19:38;7.10;99.90
24262;DHT22;12385;51.412;5.540;2022-12-07T15:22:03;7.10;99.90
24262;DHT22;12385;51.412;5.540;2022-12-07T15:24:29;7.00;99.90
24262;DHT22;12385;51.412;5.540;2022-12-07T15:26:55;7.00;99.90
24262;DHT22;12385;51.412;5.540;2022-12-07T15:29:21;7.00;99.90
24262;DHT22;12385;51.412;5.540;2022-12-07T15:31:48;6.90;99.90
24262;DHT22;12385;51.412;5.540;2022-12-07T15:34:14;6.80;99.90
24262;DHT22;12385;51.412;5.540;2022-12-07T15:36:40;6.80;99.90
24262;DHT22;12385;51.412;5.540;2022-12-07T15:39:05;6.70;99.90
24262;DHT22;12385;51.412;5.540;2022-12-07T15:41:31;6.60;99.90
24262;DHT22;12385;51.412;5.540;2022-12-07T15:43:57;6.50;99.90
24262;DHT22;12385;51.412;5.540;2022-12-07T15:46:41;6.50;99.90
24262;DHT22;12385;51.412;5.540;2022-12-07T15:49:16;6.40;99.90
24262;DHT22;12385;51.412;5.540;2022-12-07T15:51:42;6.40;99.90
24262;DHT22;12385;51.412;5.540;2022-12-07T15:54:19;6.30;99.90
24262;DHT22;12385;51.412;5.540;2022-12-07T15:56:45;6.30;99.90
24262;DHT22;12385;51.412;5.540;2022-12-07T15:59:11;6.30;99.90
24262;DHT22;12385;51.412;5.540;2022-12-07T16:01:36;6.30;99.90
24262;DHT22;12385;51.412;5.540;2022-12-07T16:04:02;6.20;99.90
24262;DHT22;12385;51.412;5.540;2022-12-07T16:06:28;6.20;99.90
24262;DHT22;12385;51.412;5.540;2022-12-07T16:08:54;6.20;99.90
24262;DHT22;12385;51.412;5.540;2022-12-07T16:11:20;6.20;99.90
24262;DHT22;12385;51.412;5.540;2022-12-07T16:13:45;6.20;99.90
24262;DHT22;12385;51.412;5.540;2022-12-07T16:16:13;6.20;99.90
24262;DHT22;12385;51.412;5.540;2022-12-07T16:18:39;6.20;99.90
24262;DHT22;12385;51.412;5.540;2022-12-07T16:21:05;6.30;99.90
24262;DHT22;12385;51.412;5.540;2022-12-07T16:23:31;6.30;99.90
24262;DHT22;12385;51.412;5.540;2022-12-07T16:26:07;6.30;99.90
24262;DHT22;12385;51.412;5.540;2022-12-07T16:28:33;6.30;99.90
24262;DHT22;12385;51.412;5.540;2022-12-07T16:31:01;6.30;99.90
24262;DHT22;12385;51.412;5.540;2022-12-07T16:33:30;6.30;99.90
24262;DHT22;12385;51.412;5.540;2022-12-07T16:35:56;6.30;99.90
24262;DHT22;12385;51.412;5.540;2022-12-07T16:38:23;6.30;99.90
24262;DHT22;12385;51.412;5.540;2022-12-07T16:40:48;6.30;99.90
24262;DHT22;12385;51.412;5.540;2022-12-07T16:43:14;6.30;99.90
24262;DHT22;12385;51.412;5.540;2022-12-07T16:45:40;6.30;99.90
24262;DHT22;12385;51.412;5.540;2022-12-07T16:48:05;6.30;99.90
24262;DHT22;12385;51.412;5.540;2022-12-07T16:50:31;6.30;99.90
24262;DHT22;12385;51.412;5.540;2022-12-07T16:52:56;6.20;99.90
24262;DHT22;12385;51.412;5.540;2022-12-07T16:55:23;6.20;99.90
24262;DHT22;12385;51.412;5.540;2022-12-07T16:57:49;6.20;99.90
24262;DHT22;12385;51.412;5.540;2022-12-07T17:00:14;6.20;99.90
24262;DHT22;12385;51.412;5.540;2022-12-07T17:02:40;6.20;99.90
24262;DHT22;12385;51.412;5.540;2022-12-07T17:05:06;6.20;99.90
24262;DHT22;12385;51.412;5.540;2022-12-07T17:07:32;6.20;99.90
24262;DHT22;12385;51.412;5.540;2022-12-07T17:09:57;6.20;99.90
24262;DHT22;12385;51.412;5.540;2022-12-07T17:12:23;6.20;99.90
24262;DHT22;12385;51.412;5.540;2022-12-07T17:14:48;6.20;99.90
24262;DHT22;12385;51.412;5.540;2022-12-07T17:17:32;6.20;99.90
24262;DHT22;12385;51.412;5.540;2022-12-07T17:19:58;6.20;99.90
24262;DHT22;12385;51.412;5.540;2022-12-07T17:22:24;6.20;99.90
24262;DHT22;12385;51.412;5.540;2022-12-07T17:24:49;6.20;99.90
24262;DHT22;12385;51.412;5.540;2022-12-07T17:27:16;6.20;99.90
24262;DHT22;12385;51.412;5.540;2022-12-07T17:29:41;6.20;99.90
24262;DHT22;12385;51.412;5.540;2022-12-07T17:32:07;6.20;99.90
24262;DHT22;12385;51.412;5.540;2022-12-07T17:34:32;6.20;99.90
24262;DHT22;12385;51.412;5.540;2022-12-07T17:36:58;6.20;99.90
24262;DHT22;12385;51.412;5.540;2022-12-07T17:39:24;6.10;99.90
24262;DHT22;12385;51.412;5.540;2022-12-07T17:41:50;6.10;99.90
24262;DHT22;12385;51.412;5.540;2022-12-07T17:44:34;6.10;99.90
24262;DHT22;12385;51.412;5.540;2022-12-07T17:47:00;6.10;99.90
24262;DHT22;12385;51.412;5.540;2022-12-07T17:49:28;6.10;99.90
24262;DHT22;12385;51.412;5.540;2022-12-07T17:51:54;6.00;99.90
24262;DHT22;12385;51.412;5.540;2022-12-07T17:54:38;6.00;99.90
24262;DHT22;12385;51.412;5.540;2022-12-07T17:57:04;6.00;99.90
24262;DHT22;12385;51.412;5.540;2022-12-07T17:59:29;5.90;99.90
24262;DHT22;12385;51.412;5.540;2022-12-07T18:01:55;5.90;99.90
24262;DHT22;12385;51.412;5.540;2022-12-07T18:04:21;5.80;99.90
24262;DHT22;12385;51.412;5.540;2022-12-07T18:06:46;5.80;99.90
24262;DHT22;12385;51.412;5.540;2022-12-07T18:09:12;5.80;99.90
24262;DHT22;12385;51.412;5.540;2022-12-07T18:11:37;5.70;99.90